Terminal Aerodrome Forecast
Issued by NWS

Home | Current Version | Previous Version | Graphics & Text | Print | Product List | Glossary On
Versions: 1 2 3 4 5 6 7 8 9 10 11 12 13 14 15 16 17 18 19 20 21
000
FTUS43 KGRB 261000 AAA
TAFATW
TAF AMD
KATW 261013Z 2610/2706 VRB03KT 6SM BR SCT007 OVC019
      TEMPO 2610/2612 4SM BR BKN007
     FM261200 00000KT 5SM BR FEW020 BKN050
     FM261600 07003KT 6SM HZ SCT015 BKN035=

USA.gov is the U.S. government's official web portal to all federal, state and local government web resources and services.